Weather History for Thermopolis, WY

Change the Weather History Date:

Friday, November 16, 2012

  Actual Average (KWRL) Record (KWRL)
Temperature  
Mean Temperature 32 °F 30 °F  
Max Temperature 35 °F 44 °F 65 °F (2001)
Min Temperature 28 °F 17 °F -22 °F (2014)
Degree Days  
Heating Degree Days 34 35  
Month to date heating degree days 484  
Since 1 July heating degree days 1346  
Cooling Degree Days 0 0  
Month to date cooling degree days 0  
Year to date cooling degree days 535  
Moisture  
Dew Point 21 °F    
Average Humidity 62    
Maximum Humidity 74    
Minimum Humidity 51    
Precipitation  
Precipitation 0.00 in 0.01 in 0.15 in (1969)
Month to date precipitation 0.20  
Year to date precipitation 7.19  
Sea Level Pressure  
Sea Level Pressure 30.15 in    
Wind  
Wind Speed 14 mph ()    
Max Wind Speed 24 mph    
Max Gust Speed 25 mph    
Visibility 10.0 miles    
Events      
T = Trace of Precipitation, MM = Missing Value Source: Averaged Metar Reports

Daily Weather History Graph

Daily Weather History Graph

Search for Another Location

Airport:

Trip Planner

Search our weather history database for the weather conditions in past years. The results will help you decide how hot, cold, wet, or windy it might be!

Date:

Astronomy

Nov. 16, 2012 Rise Set
Actual Time 7:08 AM MST 4:46 PM MST
Civil Twilight 6:37 AM MST 5:17 PM MST
Nautical Twilight 6:02 AM MST 5:52 PM MST
Astronomical Twilight 5:28 AM MST 6:26 PM MST
Moon 10:07 AM MST (11/16) 7:48 PM MST (11/16)
Length of Visible Light 10h 40m
Length of Day
9h 38m
Waxing Crescent, 12% of the Moon is Illuminated
Nov 16
Waxing Crescent
Nov 20
First Quarter
Nov 28
Full
Dec 6
Last Quarter
Dec 13
New

Hourly Weather History & Observations

Time (MST) Temp. Windchill Dew Point Humidity Pressure Visibility Wind Dir Wind Speed Gust Speed Precip Events Conditions
12:15 AM 28.4 °F 16.6 °F 21.2 °F 74% 30.22 in 10.0 mi SSE 16.1 mph - N/A   Clear
12:35 AM 28.4 °F 18.0 °F 21.2 °F 74% 30.21 in 10.0 mi SSE 12.7 mph - N/A   Clear
12:55 AM 28.4 °F 19.7 °F 21.2 °F 74% 30.22 in 10.0 mi SSE 9.2 mph 16.1 mph N/A   Clear
1:15 AM 28.4 °F 17.5 °F 21.2 °F 74% 30.20 in 10.0 mi SE 13.8 mph - N/A   Clear
1:35 AM 28.4 °F 17.0 °F 21.2 °F 74% 30.20 in 10.0 mi SSE 15.0 mph - N/A   Clear
1:55 AM 28.4 °F 16.6 °F 21.2 °F 74% 30.20 in 10.0 mi SSE 16.1 mph - N/A   Clear
2:15 AM 30.2 °F 17.8 °F 19.4 °F 64% 30.20 in 10.0 mi South 19.6 mph - N/A   Clear
2:35 AM 28.4 °F 15.4 °F 21.2 °F 74% 30.20 in 10.0 mi SSE 19.6 mph - N/A   Clear
2:55 AM 32.0 °F 19.2 °F 19.4 °F 60% 30.20 in 10.0 mi South 23.0 mph - N/A   Clear
3:15 AM 32.0 °F 19.5 °F 17.6 °F 55% 30.20 in 10.0 mi South 21.9 mph - N/A   Clear
3:35 AM 30.2 °F 18.1 °F 21.2 °F 69% 30.20 in 10.0 mi SSE 18.4 mph - N/A   Clear
3:55 AM 30.2 °F 17.4 °F 19.4 °F 64% 30.19 in 10.0 mi South 20.7 mph - N/A   Clear
4:15 AM 30.2 °F 17.8 °F 17.6 °F 60% 30.19 in 10.0 mi SSE 19.6 mph - N/A   Clear
4:35 AM 30.2 °F 17.8 °F 17.6 °F 60% 30.19 in 10.0 mi South 19.6 mph - N/A   Clear
4:55 AM 32.0 °F 19.8 °F 15.8 °F 51% 30.18 in 10.0 mi South 20.7 mph - N/A   Clear
5:15 AM 32.0 °F 20.8 °F 17.6 °F 55% 30.18 in 10.0 mi SSE 17.3 mph - N/A   Clear
5:35 AM 32.0 °F 23.6 °F 17.6 °F 55% 30.18 in 10.0 mi SSE 10.4 mph - N/A   Clear
5:55 AM 30.2 °F 20.8 °F 17.6 °F 60% 30.18 in 10.0 mi SSE 11.5 mph - N/A   Clear
6:15 AM 30.2 °F 19.3 °F 17.6 °F 60% 30.18 in 10.0 mi SE 15.0 mph - N/A   Clear
6:35 AM 30.2 °F 17.8 °F 17.6 °F 60% 30.16 in 10.0 mi SE 19.6 mph - N/A   Clear
6:55 AM 30.2 °F 19.3 °F 19.4 °F 64% 30.17 in 10.0 mi SE 15.0 mph 19.6 mph N/A   Clear
7:15 AM 32.0 °F 22.1 °F 19.4 °F 60% 30.18 in 10.0 mi SE 13.8 mph - N/A   Clear
7:35 AM 32.0 °F 22.1 °F 17.6 °F 55% 30.18 in 10.0 mi SSE 13.8 mph - N/A   Clear
7:55 AM 32.0 °F 21.2 °F 17.6 °F 55% 30.18 in 10.0 mi SE 16.1 mph - N/A   Clear
8:15 AM 32.0 °F 22.5 °F 17.6 °F 55% 30.18 in 10.0 mi SSE 12.7 mph - N/A   Clear
8:35 AM 32.0 °F 22.1 °F 17.6 °F 55% 30.18 in 10.0 mi SSE 13.8 mph - N/A   Clear
8:55 AM 32.0 °F 23.6 °F 17.6 °F 55% 30.18 in 10.0 mi SSE 10.4 mph - N/A   Clear
9:15 AM 32.0 °F 23.0 °F 19.4 °F 60% 30.18 in 10.0 mi SSE 11.5 mph 16.1 mph N/A   Clear
9:35 AM 32.0 °F 23.6 °F 19.4 °F 60% 30.18 in 10.0 mi SSE 10.4 mph - N/A   Clear
9:55 AM 32.0 °F 21.6 °F 21.2 °F 64% 30.18 in 10.0 mi SE 15.0 mph - N/A   Clear
10:15 AM 32.0 °F 22.1 °F 21.2 °F 64% 30.18 in 10.0 mi SE 13.8 mph - N/A   Clear
10:35 AM 32.0 °F 21.2 °F 23.0 °F 69% 30.16 in 10.0 mi SE 16.1 mph - N/A   Clear
10:55 AM 32.0 °F 20.8 °F 21.2 °F 64% 30.17 in 10.0 mi SE 17.3 mph - N/A   Clear
11:15 AM 32.0 °F 20.8 °F 21.2 °F 64% 30.16 in 10.0 mi SE 17.3 mph - N/A   Clear
11:35 AM 32.0 °F 20.8 °F 23.0 °F 69% 30.16 in 10.0 mi ESE 17.3 mph - N/A   Scattered Clouds
11:55 AM 33.8 °F 23.5 °F 23.0 °F 65% 30.16 in 10.0 mi ESE 16.1 mph - N/A   Clear
12:15 PM 33.8 °F 22.5 °F 23.0 °F 65% 30.14 in 10.0 mi ESE 19.6 mph - N/A   Clear
12:35 PM 33.8 °F 22.2 °F 23.0 °F 65% 30.14 in 10.0 mi ESE 20.7 mph - N/A   Clear
12:55 PM 33.8 °F 22.8 °F 23.0 °F 65% 30.14 in 10.0 mi SE 18.4 mph - N/A   Clear
1:15 PM 35.6 °F 25.2 °F 23.0 °F 60% 30.13 in 10.0 mi SE 18.4 mph - N/A   Clear
1:35 PM 35.6 °F 25.2 °F 23.0 °F 60% 30.12 in 10.0 mi SE 18.4 mph 25.3 mph N/A   Scattered Clouds
1:55 PM 35.6 °F 24.8 °F 23.0 °F 60% 30.12 in 10.0 mi SE 19.6 mph - N/A   Scattered Clouds
2:15 PM 35.6 °F 25.2 °F 23.0 °F 60% 30.11 in 10.0 mi SE 18.4 mph 21.9 mph N/A   Scattered Clouds
2:35 PM 35.6 °F 24.8 °F 23.0 °F 60% 30.10 in 10.0 mi SE 19.6 mph - N/A   Mostly Cloudy
2:55 PM 35.6 °F 25.2 °F 23.0 °F 60% 30.10 in 10.0 mi SE 18.4 mph - N/A   Overcast
3:15 PM 35.6 °F 24.5 °F 23.0 °F 60% 30.09 in 10.0 mi SE 20.7 mph - N/A   Overcast
3:35 PM 35.6 °F 25.5 °F 23.0 °F 60% 30.09 in 10.0 mi SE 17.3 mph - N/A   Overcast
3:55 PM 35.6 °F 25.9 °F 23.0 °F 60% 30.10 in 10.0 mi SE 16.1 mph - N/A   Overcast
4:15 PM 35.6 °F 26.6 °F 23.0 °F 60% 30.09 in 10.0 mi SE 13.8 mph - N/A   Overcast
4:35 PM 35.6 °F 27.1 °F 23.0 °F 60% 30.10 in 10.0 mi SE 12.7 mph - N/A   Overcast
4:55 PM 35.6 °F 27.1 °F 23.0 °F 60% 30.10 in 10.0 mi SSE 12.7 mph - N/A   Overcast
5:15 PM 35.6 °F 29.2 °F 23.0 °F 60% 30.10 in 10.0 mi SSE 8.1 mph - N/A   Overcast
5:35 PM 35.6 °F 28.6 °F 23.0 °F 60% 30.10 in 10.0 mi SSE 9.2 mph - N/A   Overcast
5:55 PM 35.6 °F 29.2 °F 23.0 °F 60% 30.10 in 10.0 mi SSE 8.1 mph - N/A   Overcast
6:15 PM 35.6 °F 28.6 °F 23.0 °F 60% 30.10 in 10.0 mi SE 9.2 mph - N/A   Mostly Cloudy
6:35 PM 35.6 °F 30.7 °F 23.0 °F 60% 30.10 in 10.0 mi SE 5.8 mph - N/A   Mostly Cloudy
6:55 PM 33.8 °F 24.8 °F 23.0 °F 65% 30.10 in 10.0 mi SE 12.7 mph - N/A   Overcast
7:15 PM 33.8 °F 27.7 °F 23.0 °F 65% 30.11 in 10.0 mi SSE 6.9 mph - N/A   Scattered Clouds
7:35 PM 33.8 °F 28.6 °F 23.0 °F 65% 30.12 in 10.0 mi SSE 5.8 mph - N/A   Clear
7:55 PM 35.6 °F 25.9 °F 23.0 °F 60% 30.10 in 10.0 mi SSW 16.1 mph 23.0 mph N/A   Scattered Clouds
8:15 PM 35.6 °F 28.6 °F 23.0 °F 60% 30.11 in 10.0 mi SSE 9.2 mph 20.7 mph N/A   Mostly Cloudy
8:35 PM 33.8 °F 26.4 °F 23.0 °F 65% 30.11 in 10.0 mi South 9.2 mph - N/A   Overcast
8:55 PM 33.8 °F 25.8 °F 23.0 °F 65% 30.11 in 10.0 mi South 10.4 mph - N/A   Overcast
9:15 PM 33.8 °F 27.0 °F 23.0 °F 65% 30.12 in 10.0 mi SE 8.1 mph - N/A   Mostly Cloudy
9:35 PM 33.8 °F 28.6 °F 23.0 °F 65% 30.12 in 10.0 mi SSE 5.8 mph - N/A   Mostly Cloudy
9:55 PM 35.6 °F 26.2 °F 23.0 °F 60% 30.13 in 10.0 mi WSW 15.0 mph 23.0 mph N/A   Overcast
10:15 PM 35.6 °F 28.0 °F 23.0 °F 60% 30.13 in 10.0 mi SW 10.4 mph - N/A   Scattered Clouds
10:35 PM 35.6 °F 26.6 °F 23.0 °F 60% 30.13 in 10.0 mi SW 13.8 mph 20.7 mph N/A   Scattered Clouds
10:55 PM 35.6 °F 24.8 °F 23.0 °F 60% 30.13 in 10.0 mi WSW 19.6 mph - N/A   Clear
11:15 PM 35.6 °F 23.7 °F 23.0 °F 60% 30.13 in 10.0 mi WSW 24.2 mph - N/A   Clear
11:35 PM 35.6 °F 24.8 °F 23.0 °F 60% 30.14 in 10.0 mi WSW 19.6 mph - N/A   Clear
11:55 PM 35.6 °F 25.5 °F 24.8 °F 65% 30.14 in 10.0 mi WSW 17.3 mph - N/A   Clear